Nearby Meteorological Terminal Aviation Routine Weather Reports (METAR)
KAVP - Avoca/Wilkes B., Pennsylvania, USA
Distance from station: NE 13mi, 20km
Updated: Wed, 22-May-2019 12:54am EDT
Clear
Clear
 Wind from N
Wind: N 6 mph , 9 km/h
Temperature: 50°F , 10°C
Wind Chill: 48°F , 9°C
Dew Point: 39°F , 4°C
Humidity: 67%
Barometer: 30.17 inHg , 1021.7 hPa
Clouds: Clear
Visibility: 10 miles , 16 km
2019/05/22 04:54 KAVP 220454Z 01005KT 10SM CLR 10/04 A3017 RMK AO2 SLP215 T01000039 402060094
KMPO - Mt. Pocono, Pennsylvania, USA
Distance from station: ESE 28mi, 45km
Updated: Wed, 22-May-2019 12:53am EDT
Clear
Clear
 Wind from NW
Wind: NW 12 mph , 19 km/h
Temperature: 46°F , 8°C
Wind Chill: 40°F , 4°C
Dew Point: 37°F , 3°C
Humidity: 71%
Barometer: 30.15 inHg , 1021 hPa
Clouds: Clear
Visibility: 10 miles , 16 km
2019/05/22 04:53 KMPO 220453Z AUTO 31010KT 10SM CLR 08/03 A3015 RMK AO2 SLP214 T00830028 401670067
 
KABE - Allentown, Pennsylvania, USA
Distance from station: SSE 46mi, 74km
Updated: Wed, 22-May-2019 12:51am EDT
Clear
Clear
 Wind from NW
Wind: NW 6 mph , 9 km/h
Temperature: 54°F , 12°C
Dew Point: 37°F , 3°C
Humidity: 54%
Barometer: 30.16 inHg , 1021.3 hPa
Clouds: Clear
Visibility: 10 miles , 16 km
2019/05/22 04:51 KABE 220451Z 32005KT 10SM CLR 12/03 A3016 RMK AO2 SLP213 T01220033 402280122
KXLL - Allentown Queen, Pennsylvania, USA
Distance from station: SSE 50mi, 81km
Updated: Wed, 22-May-2019 12:55am EDT
Clear
Clear
 Wind from NNW
Wind: NNW 7 mph , 11 km/h
Temperature: 54°F , 12°C
Dew Point: 39°F , 4°C
Humidity: 58%
Barometer: 30.17 inHg , 1021.7 hPa
Clouds: Clear
Visibility: 10 miles , 16 km
2019/05/22 04:55 KXLL 220455Z AUTO 33006KT 10SM CLR 12/04 A3017 RMK AO2
 
KIPT - Williamsport, Pennsylvania, USA
Distance from station: W 52mi, 84km
Updated: Wed, 22-May-2019 12:54am EDT
Clear
Clear
 Wind from calm
Wind: Calm
Temperature: 46°F , 8°C
Dew Point: 39°F , 4°C
Humidity: 76%
Barometer: 30.18 inHg , 1022 hPa
Clouds: Clear
Visibility: 10 miles , 16 km
2019/05/22 04:54 KIPT 220454Z AUTO 00000KT 10SM CLR 08/04 A3018 RMK AO2 SLP221 T00830044 402220083
KSEG - Selinsgrove, Pennsylvania, USA
Distance from station: WSW 57mi, 92km
Updated: Wed, 22-May-2019 12:53am EDT
Clear
Clear
 Wind from NW
Wind: NW 3 mph , 6 km/h
Temperature: 48°F , 9°C
Dew Point: 43°F , 6°C
Humidity: 82%
Barometer: 30.19 inHg , 1022.4 hPa
Clouds: Clear
Visibility: 10 miles , 16 km
2019/05/22 04:53 KSEG 220453Z AUTO 32003KT 10SM CLR 09/06 A3019 RMK AO2 SLP223 T00890056 402170083
 
KRDG - Reading, Pennsylvania, USA
Distance from station: S 59mi, 95km
Updated: Wed, 22-May-2019 12:54am EDT
Clear
Clear
 Wind from N
Wind: N 7 mph , 11 km/h
Temperature: 54°F , 12°C
Dew Point: 43°F , 6°C
Humidity: 67%
Barometer: 30.15 inHg , 1021 hPa
Clouds: Clear
Visibility: 10 miles , 16 km
2019/05/22 04:54 KRDG 220454Z 36006KT 10SM CLR 12/06 A3015 RMK AO2 SLP214 T01220056 402170117
KUKT - Quakertown Arp, Pennsylvania, USA
Distance from station: SSE 61mi, 98km
Updated: Wed, 22-May-2019 12:55am EDT
Clear
Clear
 Wind from NW
Wind: NW 7 mph , 11 km/h
Temperature: 52°F , 11°C
Dew Point: 39°F , 4°C
Humidity: 62%
Barometer: 30.16 inHg , 1021.3 hPa
Clouds: Clear
Visibility: 10 miles , 16 km
2019/05/22 04:55 KUKT 220455Z AUTO 32006KT 10SM CLR 11/04 A3016 RMK A01
 
K12N - Andover, New Jersey, USA
Distance from station: ESE 63mi, 101km
Updated: Wed, 22-May-2019 12:54am EDT

 Wind from calm
Wind: Calm
Temperature: 48°F , 9°C
Dew Point: 41°F , 5°C
Humidity: 76%
Barometer: 30.16 inHg , 1021.3 hPa
2019/05/22 04:54 K12N 220454Z AUTO 00000KT 09/05 A3016 RMK AO1 SLP211 T00890050 402060083
KMUI - Muir Aaf/Indiant, Pennsylvania, USA
Distance from station: SSW 65mi, 105km
Updated: Wed, 22-May-2019 12:56am EDT
Clear
Clear
 Wind from SE
Wind: SE 5 mph , 7 km/h
Temperature: 55°F , 13°C
Dew Point: 37°F , 3°C
Humidity: 51%
Barometer: 30.17 inHg , 1021.7 hPa
Clouds: Clear
Visibility: 10 miles , 16 km
2019/05/22 04:56 KMUI 220456Z AUTO 13004KT 10SM CLR 13/03 A3017 RMK AO2 SLP219 T01280032 402130127
 
KFWN - Sussex, New Jersey, USA
Distance from station: E 66mi, 107km
Updated: Wed, 22-May-2019 12:53am EDT
Clear
Clear
 Wind from SSW
Wind: SSW 3 mph , 6 km/h
Temperature: 45°F , 7°C
Dew Point: 43°F , 6°C
Humidity: 93%
Barometer: 30.16 inHg , 1021.3 hPa
Clouds: Clear
Visibility: 10 miles , 16 km
2019/05/22 04:53 KFWN 220453Z AUTO 21003KT 10SM CLR 07/06 A3016 RMK AO2 SLP212 T00720056 402110072
KMSV - Monticello, New York, USA
Distance from station: ENE 67mi, 108km
Updated: Wed, 22-May-2019 12:56am EDT
Clear
Clear
 Wind from WSW
Wind: WSW 5 mph , 7 km/h
Temperature: 46°F , 8°C
Wind Chill: 44°F , 7°C
Dew Point: 36°F , 2°C
Humidity: 66%
Barometer: 30.16 inHg , 1021.3 hPa
Clouds: Clear
Visibility: 10 miles , 16 km
2019/05/22 04:56 KMSV 220456Z AUTO 25004KT 10SM CLR 08/02 A3016 RMK AO2 SLP214 T00780017 401780067
 
KBGM - Binghamton, New York, USA
Distance from station: N 69mi, 111km
Updated: Wed, 22-May-2019 12:53am EDT
Clear
Clear
 Wind from NNW
Wind: NNW 7 mph , 11 km/h
Temperature: 48°F , 9°C
Wind Chill: 45°F , 7°C
Dew Point: 36°F , 2°C
Humidity: 62%
Barometer: 30.16 inHg , 1021.3 hPa
Clouds: Clear
Visibility: 10 miles , 16 km
2019/05/22 04:53 KBGM 220453Z AUTO 33006KT 10SM CLR 09/02 A3016 RMK AO2 SLP216 T00940017 401560056
KPTW - Pottstown, Pennsylvania, USA
Distance from station: SSE 71mi, 114km
Updated: Wed, 22-May-2019 12:54am EDT
Clear
Clear
 Wind from NNW
Wind: NNW 3 mph , 6 km/h
Temperature: 52°F , 11°C
Dew Point: 37°F , 3°C
Humidity: 58%
Barometer: 30.17 inHg , 1021.7 hPa
Clouds: Clear
Visibility: 10 miles , 16 km
2019/05/22 04:54 KPTW 220454Z AUTO 34003KT 10SM CLR 11/03 A3017 RMK AO2 SLP213 T01110033 402110106
 
KDYL - Doylestown, Pennsylvania, USA
Distance from station: SE 74mi, 119km
Updated: Wed, 22-May-2019 12:54am EDT
Clear
Clear
 Wind from N
Wind: N 7 mph , 11 km/h
Temperature: 54°F , 12°C
Dew Point: 37°F , 3°C
Humidity: 54%
Barometer: 30.14 inHg , 1020.7 hPa
Clouds: Clear
Visibility: 10 miles , 16 km
2019/05/22 04:54 KDYL 220454Z AUTO 01006KT 10SM CLR 12/03 A3014 RMK AO2 SLP205 T01220033 402280122 $
KSMQ - Somerville, New Jersey, USA
Distance from station: ESE 77mi, 124km
Updated: Wed, 22-May-2019 12:53am EDT
Clear
Clear
 Wind from calm
Wind: Calm
Temperature: 48°F , 9°C
Dew Point: 43°F , 6°C
Humidity: 82%
Barometer: 30.13 inHg , 1020.3 hPa
Clouds: Clear
Visibility: 10 miles , 16 km
2019/05/22 04:53 KSMQ 220453Z AUTO 00000KT 10SM CLR 09/06 A3013 RMK AO2 SLP203 T00890061 402280089 $
 
KLNS - Lancaster, Pennsylvania, USA
Distance from station: SSW 79mi, 127km
Updated: Wed, 22-May-2019 12:53am EDT
Clear
Clear
 Wind from ENE
Wind: ENE 5 mph , 7 km/h
Temperature: 55°F , 13°C
Dew Point: 39°F , 4°C
Humidity: 55%
Barometer: 30.16 inHg , 1021.3 hPa
Clouds: Clear
Visibility: 10 miles , 16 km
2019/05/22 04:53 KLNS 220453Z AUTO 06004KT 10SM CLR 13/04 A3016 RMK AO2 SLP211 T01330039 402170128
KELM - Elmira, New York, USA
Distance from station: NW 82mi, 132km
Updated: Wed, 22-May-2019 12:53am EDT
Clear
Clear
 Wind from calm
Wind: Calm
Temperature: 39°F , 4°C
Dew Point: 37°F , 3°C
Humidity: 93%
Barometer: 30.18 inHg , 1022 hPa
Clouds: Clear
Visibility: 10 miles , 16 km
2019/05/22 04:53 KELM 220453Z AUTO 00000KT 10SM CLR 04/03 A3018 RMK AO2 SLP223 T00440028 401940044
 
KLOM - Philly Wings F, Pennsylvania, USA
Distance from station: SSE 82mi, 132km
Updated: Tue, 21-May-2019 8:10am EDT
NOT Current
Mostly cloudy
Mostly cloudy
 Wind from NW
Wind: NW 7 mph , 11 km/h, Gust: 16 mph , 26 km/h
Temperature: 57°F , 14°C
Dew Point: 41°F , 5°C
Humidity: 55%
Barometer: 29.99 inHg , 1015.6 hPa
Clouds: Mostly cloudy
Visibility: 10 miles , 16 km
Cloud details: Mostly cloudy 4400 ft
2019/05/21 12:10 KLOM 211210Z AUTO 32006G14KT 10SM BKN044 14/05 A2999 RMK AO1
KMMU - Morristown Muni, New Jersey, USA
Distance from station: ESE 83mi, 134km
Updated: Wed, 22-May-2019 12:55am EDT
Clear
Clear
 Wind from calm
Wind: Calm
Temperature: 55°F , 13°C
Dew Point: 37°F , 3°C
Humidity: 51%
Barometer: 30.13 inHg , 1020.3 hPa
Clouds: Clear
Visibility: 10 miles , 16 km
2019/05/22 04:55 KMMU 220455Z AUTO 00000KT 10SM CLR 13/03 A3013 RMK AO2

Metar display script from Saratoga-Weather.org


Cairn Terrier Rescue
teddybearweather.com 2009-2018